Padre Aldamiz Airport
SPTU : rendu visible

Aérodrome :











RETROUVEZ-NOUS SUR...

 
LOGIN :

S'inscrire | Disclaimer

   EN    FR    IT 

 









Légende :    VFR   VFR Marginal   IFR   IFR Intensif   IFR Très Intensif
Visi : 
Plafond : 
>= 8 km
>= 3000ft
5 à 8 km
1000 à 3000 ft
1500m à 5 km
500 à 1000 ft
800 à 1500m
200 à 500 ft
< 800m
< 200 ft
Symboles :   Orages  Brouillard  Fortes neiges  Fortes précipitations  Vent > 20 kt






- Altitude de l'aérodrome : 659 ft
- Code IATA : PEM


SPTU - Padre Aldamiz

DERNIER METAR :
  • 241800Z 34003KT 310V020 SCT025 BKN120 30/20 Q1010 RMK BIRD HAZARD RWY 01/19 PP000

METARs EXPIRÉS :
  • 241700Z VRB02KT 9999 SCT018 BKN120 29/22 Q1011 RMK BIRD HAZARD RWY 01/19 PP000
  • 241600Z 33004KT 260V360 9999 SCT018 BKN120 28/21 Q1012 RMK BIRD HAZARD RWY 01/19 PP000

TAF SPTU
Valide du 24 à 18h jusqu'au 25 à 18h UTC


241700Z 2418/2518 31005KT 9999 SCT020 BKN100 TX31/2419Z TN20/2511Z



MET'MAP, la Météo Aéronautique d'un coup d'oeil ! - Copyright ORBIFLY Décembre 2007 - Disclaimer

ORBIFLY MET'MAP TEAM :

Programmation & Développement : Alexandra Zaïnal
Sur une idée originale de : Baudouin d'Aumeries
Assistance à la programmation : Marc-Olivier Méhu
Soutien technique & logistique : Manuel Goepfert

Contact : metmap@orbifly.com




SOURCES & CREDITS :

   NOAA       Earth
Advisory